Search flights

Sitka Rocky Gutierrez Airport, Sitka (PASI)

Airport Weather & NOTAM's

METAR for:PASI (Sitka/Gutierrez Arpt, AK, US)
Text:PASI 121853Z 19012KT 6SM BR FEW005 OVC020 13/11 A3019 RMK AO2 RAB16E26 SLP224 P0000 T01330111 $
Conditions at:1853 UTC 12 Jul 2024
Temperature: 13.3°C ( 56°F)
Dewpoint: 11.1°C ( 52°F) [RH = 87%]
Pressure (altimeter):30.19 inches Hg (1022.4 mb) [Sea level pressure: 1022.4 mb]
Winds:from the S (190 degrees) at 14 MPH (12 knots; 6.2 m/s)
Visibility:6 sm (10 km)
Ceiling:2000 feet AGL
Clouds:few clouds at 500 feet AGL, overcast cloud deck at 2000 feet AGL
Weather:BR (mist)
QC Flag:SOME DATA ABOVE MAY BE INACCURATE!!!"$" is an indication the sensor requires maintenance.
TAF for:PASI (Sitka/Gutierrez Arpt, AK, US) issued at 1738 UTC 12 Jul 2024
Text:PASI 121738Z 1218/1318 VRB05KT 2SM -RA BR SCT005 OVC015
Forecast period:1800 to 2100 UTC 12 July 2024
Forecast type:FROM: standard forecast or significant change
Winds:variable direction winds at 6 MPH (5 knots; 2.6 m/s)
Visibility:2.00 sm (3.22 km)
Ceiling:1500 feet AGL
Clouds:scattered clouds at 500 feet AGL, overcast cloud deck at 1500 feet AGL
Weather:-RA BR (light rain, mist)
Text:TEMPO 1218/1221 6SM BR SCT010 BKN025 OVC040
Forecast period:1800 to 2100 UTC 12 July 2024
Forecast type:TEMPORARY: The following changes expected for less than half the time period
Visibility:6 sm (10 km)
Ceiling:2500 feet AGL
Clouds:scattered clouds at 1000 feet AGL, broken clouds at 2500 feet AGL, overcast cloud deck at 4000 feet AGL
Weather:BR (mist)
Text:FM122100 22005KT 6SM BR OVC015
Forecast period:2100 UTC 12 July 2024 to 1200 UTC 13 July 2024
Forecast type:FROM: standard forecast or significant change
Winds:from the SW (220 degrees) at 6 MPH (5 knots; 2.6 m/s)
Visibility:6 sm (10 km)
Ceiling:1500 feet AGL
Clouds:overcast cloud deck at 1500 feet AGL
Weather:BR (mist)
Text:FM131200 VRB05KT 2SM -RA BR OVC008
Forecast period:1200 to 1800 UTC 13 July 2024
Forecast type:FROM: standard forecast or significant change
Winds:variable direction winds at 6 MPH (5 knots; 2.6 m/s)
Visibility:2.00 sm (3.22 km)
Ceiling:800 feet AGL
Clouds:overcast cloud deck at 800 feet AGL
Weather:-RA BR (light rain, mist)

Departures History (last 12 months)

Flight No. Dest. Aircraft Date
AA2029 PAKW Cessna 208... 2024-06-29 18:53:58
AA2015 CZMT Cessna 208... 2024-06-22 05:09:31
AA2029 PAKW Cessna 208... 2024-06-20 06:27:04
AA157 CZMT C208 2024-05-14 11:00:00
AA829157 CZMT DHC2 2024-05-13 11:00:00
AA829157 CZMT C185 2024-05-13 11:00:00
AA2007 PAJN C208 2024-05-12 11:00:00
AA157 CZMT C208 2024-05-12 11:00:00
AA8292007 PAJN C185 2024-05-11 11:00:00
AA8291230 PAJN DC6 2024-04-27 11:00:00
AA8291230 PAJN AC50 2024-02-29 11:00:00
AA8292936 PAYA AC50 2024-01-29 11:00:00
AA2936 PAYA C208 2024-01-29 11:00:00
AA8292936 PAYA AC50 2024-01-25 11:00:00
AA8292936 PAYA AC50 2024-01-25 11:00:00
AA829157 CZMT AC50 2024-01-24 11:00:00
AA8291230 PAJN AC50 2024-01-23 11:00:00
AA8291230 PAJN AC50 2024-01-23 11:00:00
AA2007 CYDL C208 2024-01-17 11:00:00
AA8292007 CYDL DHC2 2024-01-16 11:00:00
AA2007 PANT C208 2024-01-11 11:00:00
AA8292007 PANT AC50 2024-01-10 11:00:00
AA2531 PAKT C208 2023-12-30 11:00:00
AA8292531 PAKT AC50 2023-12-29 11:00:00
AA2007 PAKT C208 2023-12-09 11:00:00
AA8292007 PAKT AC50 2023-12-08 11:00:00
AA8292936 PAYA AC50 2023-11-04 11:00:00
AA829157 CZMT AC50 2023-10-26 11:00:00
AA2007 PAFE C208 2023-10-20 11:00:00
AA2007 PAFE C208 2023-10-20 11:00:00
AA8292007 PAFE DHC2 2023-10-19 11:00:00
AA8292007 PAFE AC50 2023-10-19 11:00:00
AA829452 PAKW AC50 2023-10-11 11:00:00
AA8292936 PAYA AC50 2023-10-09 11:00:00
AA8292936 PAYA AC50 2023-10-09 11:00:00
AA2936 PAYA C208 2023-10-09 11:00:00
AA2936 PAYA C208 2023-10-09 11:00:00
AA157 CZMT C208 2023-09-24 11:00:00
AA829157 CZMT AC50 2023-09-23 11:00:00
AA8292936 PAYA AC50 2023-09-18 11:00:00
AA8292936 PAYA AC50 2023-09-18 11:00:00
AA2936 PAYA C208 2023-09-18 11:00:00
AA2936 PAYA C208 2023-09-18 11:00:00
AA1230 PAJN C208 2023-09-13 11:00:00
AA8291230 PAJN AC50 2023-09-12 11:00:00
AA8292531 PAKT AC50 2023-09-09 11:00:00
AA829452 PAKW AC50 2023-08-28 11:00:00
AA452 PAKW C208 2023-08-28 11:00:00
AA829452 PAKW AC50 2023-08-24 11:00:00
AA8291230 PAJN AC50 2023-08-09 11:00:00
AA8291230 PAJN AC50 2023-07-21 11:00:00

Arrivals History (last 12 months)

Flight No. Origin Aircraft Date
AA2032 PAKW C152 2024-07-07 15:13:44
AA2028 PAJN Cessna 208... 2024-06-29 18:35:20
AA2014 PAYA Cessna 208... 2024-06-22 01:32:41
AA2028 PAJN Cessna 208... 2024-06-20 03:37:14
AA2007 PAKT C208 2024-05-11 14:00:00
AA8292007 PAKT AC50 2024-05-10 13:00:00
AA8291229 PAKW AC50 2024-04-26 13:00:00
AA8291229 PAKW AC50 2024-02-29 13:00:00
AA8291229 PAKW AC50 2024-02-18 13:00:00
AA1229 PAKW C208 2024-02-18 14:00:00
AA829156 PAYA DHC2 2024-01-22 13:00:00
AA8291352 PAKT AC50 2024-01-22 13:00:00
AA2007 CYZP C208 2024-01-17 14:00:00
AA8292007 CYZP AC50 2024-01-16 13:00:00
AA2007 PAYA C208 2024-01-10 14:00:00
AA8292007 PAYA DHC2 2024-01-09 13:00:00
AA8292007 PAVD AC50 2023-12-08 13:00:00
AA2007 PAVD C208 2023-12-08 14:00:00
AA829156 PAYA AC50 2023-11-04 13:00:00
AA829156 PAYA AC50 2023-11-04 13:00:00
AA829156 PAYA C185 2023-10-20 13:00:00
AA829451 PAJN AC50 2023-10-11 13:00:00
AA829451 PAJN AC50 2023-09-26 13:00:00
AA829451 PAJN AC50 2023-09-26 13:00:00
AA451 PAJN C208 2023-09-26 13:00:00
AA451 PAJN C208 2023-09-26 13:00:00
AA829156 PAYA AC50 2023-09-23 13:00:00
AA156 PAYA C208 2023-09-23 14:00:00
AA1229 PAKW C208 2023-09-13 14:00:00
AA8291229 PAKW AC50 2023-09-12 13:00:00
AA829156 PAYA AC50 2023-09-03 13:00:00
AA829451 PAJN AC50 2023-08-28 13:00:00
AA451 PAJN C208 2023-08-28 14:00:00
AA829451 PAJN L188 2023-08-24 13:00:00
AA8291229 PAKW AC50 2023-08-08 13:00:00
AA829451 PAJN AC50 2023-07-28 13:00:00

Runway Information (Airport elevation: 25ft)

Runway 11 Length 6,494ft Width 143ft Elevation 25ft Surface Asphalt Heading 136
Runway 29 Length 6,494ft Width 143ft Elevation 25ft Surface Asphalt Heading 316

Airport Frequencies

Type APP/DEP Frequency 126.100 Mhz
Type ASOS Frequency 135.900 Mhz
Type D Frequency 126.100 Mhz
Type FSS Frequency 122.200 Mhz
Type CTAF Frequency 123.600 Mhz
Type UC Frequency 135.900 Mhz
Type UC Frequency 122.950 Mhz
Type CTR Frequency 126.100 Mhz
Type FSS Frequency 122.200 Mhz
Type FSS Frequency 123.600 Mhz
Type FSS Frequency 135.900 Mhz

Airport Navaids

Type VORTAC Ident BKA Frequency 113800 Khz
Type NDB Ident IME Frequency 414 Khz
Type NDB Ident SIT Frequency 358 Khz